sensor_id;sensor_type;location;lat;lon;timestamp;P1;durP1;ratioP1;P2;durP2;ratioP2
62457;SDS011;48509;52.122;5.250;2023-02-12T00:00:31;24.7;;;14.6;;
62457;SDS011;48509;52.122;5.250;2023-02-12T00:02:08;24.3;;;17.91;;
62457;SDS011;48509;52.122;5.250;2023-02-12T00:05:24;21.6;;;15.1;;
62457;SDS011;48509;52.122;5.250;2023-02-12T00:07:00;25.8;;;16.61;;
62457;SDS011;48509;52.122;5.250;2023-02-12T00:08:37;22.2;;;15.0;;
62457;SDS011;48509;52.122;5.250;2023-02-12T00:10:14;22.4;;;14.2;;
62457;SDS011;48509;52.122;5.250;2023-02-12T00:13:29;19.61;;;13.9;;
62457;SDS011;48509;52.122;5.250;2023-02-12T00:15:06;22.8;;;17.7;;
62457;SDS011;48509;52.122;5.250;2023-02-12T00:16:43;30.5;;;17.5;;
62457;SDS011;48509;52.122;5.250;2023-02-12T00:19:56;21.7;;;17.5;;
62457;SDS011;48509;52.122;5.250;2023-02-12T00:21:34;24.7;;;16.61;;
62457;SDS011;48509;52.122;5.250;2023-02-12T00:23:11;25.3;;;18.8;;
62457;SDS011;48509;52.122;5.250;2023-02-12T00:24:47;27.6;;;18.41;;
62457;SDS011;48509;52.122;5.250;2023-02-12T00:28:01;23.0;;;16.4;;
62457;SDS011;48509;52.122;5.250;2023-02-12T00:29:38;20.5;;;16.61;;
62457;SDS011;48509;52.122;5.250;2023-02-12T00:31:16;24.5;;;16.0;;
62457;SDS011;48509;52.122;5.250;2023-02-12T00:34:30;24.0;;;17.11;;
62457;SDS011;48509;52.122;5.250;2023-02-12T00:36:08;25.6;;;18.41;;
62457;SDS011;48509;52.122;5.250;2023-02-12T00:37:48;30.0;;;20.7;;
62457;SDS011;48509;52.122;5.250;2023-02-12T00:39:25;28.8;;;19.0;;
62457;SDS011;48509;52.122;5.250;2023-02-12T00:42:39;26.9;;;18.91;;
62457;SDS011;48509;52.122;5.250;2023-02-12T00:44:15;30.2;;;19.7;;
62457;SDS011;48509;52.122;5.250;2023-02-12T00:45:52;24.8;;;18.3;;
62457;SDS011;48509;52.122;5.250;2023-02-12T00:49:04;33.71;;;22.5;;
62457;SDS011;48509;52.122;5.250;2023-02-12T00:50:43;29.9;;;20.0;;
62457;SDS011;48509;52.122;5.250;2023-02-12T00:52:20;32.71;;;20.3;;
62457;SDS011;48509;52.122;5.250;2023-02-12T00:55:32;31.6;;;20.2;;
62457;SDS011;48509;52.122;5.250;2023-02-12T00:57:09;29.0;;;21.9;;
62457;SDS011;48509;52.122;5.250;2023-02-12T00:58:45;31.6;;;21.8;;
62457;SDS011;48509;52.122;5.250;2023-02-12T01:00:21;27.9;;;19.8;;
62457;SDS011;48509;52.122;5.250;2023-02-12T01:03:35;29.4;;;20.8;;
62457;SDS011;48509;52.122;5.250;2023-02-12T01:05:12;31.3;;;21.9;;
62457;SDS011;48509;52.122;5.250;2023-02-12T01:06:49;30.4;;;22.3;;
62457;SDS011;48509;52.122;5.250;2023-02-12T01:10:02;32.4;;;22.7;;
62457;SDS011;48509;52.122;5.250;2023-02-12T01:11:40;32.4;;;20.8;;
62457;SDS011;48509;52.122;5.250;2023-02-12T01:13:16;25.2;;;18.61;;
62457;SDS011;48509;52.122;5.250;2023-02-12T01:16:30;31.6;;;21.7;;
62457;SDS011;48509;52.122;5.250;2023-02-12T01:18:08;28.1;;;19.8;;
62457;SDS011;48509;52.122;5.250;2023-02-12T01:19:45;26.8;;;17.91;;
62457;SDS011;48509;52.122;5.250;2023-02-12T01:21:22;28.4;;;19.0;;
62457;SDS011;48509;52.122;5.250;2023-02-12T01:24:37;29.9;;;21.1;;
62457;SDS011;48509;52.122;5.250;2023-02-12T01:26:15;28.5;;;21.1;;
62457;SDS011;48509;52.122;5.250;2023-02-12T01:27:54;23.2;;;17.5;;
62457;SDS011;48509;52.122;5.250;2023-02-12T01:31:08;25.2;;;19.3;;
62457;SDS011;48509;52.122;5.250;2023-02-12T01:32:45;25.2;;;18.61;;
62457;SDS011;48509;52.122;5.250;2023-02-12T01:34:21;27.1;;;18.5;;
62457;SDS011;48509;52.122;5.250;2023-02-12T01:35:57;28.4;;;21.0;;
62457;SDS011;48509;52.122;5.250;2023-02-12T01:39:13;30.1;;;20.9;;
62457;SDS011;48509;52.122;5.250;2023-02-12T01:40:50;25.9;;;20.0;;
62457;SDS011;48509;52.122;5.250;2023-02-12T01:42:26;28.0;;;18.0;;
62457;SDS011;48509;52.122;5.250;2023-02-12T01:45:45;26.3;;;19.7;;
62457;SDS011;48509;52.122;5.250;2023-02-12T01:47:26;32.3;;;23.1;;
62457;SDS011;48509;52.122;5.250;2023-02-12T01:49:04;30.0;;;21.5;;
62457;SDS011;48509;52.122;5.250;2023-02-12T01:50:44;28.9;;;18.91;;
62457;SDS011;48509;52.122;5.250;2023-02-12T01:54:05;28.1;;;19.8;;
62457;SDS011;48509;52.122;5.250;2023-02-12T01:55:47;24.6;;;17.91;;
62457;SDS011;48509;52.122;5.250;2023-02-12T01:57:25;31.6;;;22.6;;
62457;SDS011;48509;52.122;5.250;2023-02-12T01:59:03;35.1;;;24.5;;
62457;SDS011;48509;52.122;5.250;2023-02-12T02:02:18;35.1;;;24.5;;
62457;SDS011;48509;52.122;5.250;2023-02-12T02:03:56;31.0;;;21.0;;
62457;SDS011;48509;52.122;5.250;2023-02-12T02:05:39;30.9;;;21.8;;
62457;SDS011;48509;52.122;5.250;2023-02-12T02:07:21;34.81;;;25.1;;
62457;SDS011;48509;52.122;5.250;2023-02-12T02:10:36;31.9;;;20.11;;
62457;SDS011;48509;52.122;5.250;2023-02-12T02:14:34;27.3;;;20.41;;
62457;SDS011;48509;52.122;5.250;2023-02-12T02:16:13;32.0;;;23.8;;
62457;SDS011;48509;52.122;5.250;2023-02-12T02:18:00;33.5;;;22.7;;
62457;SDS011;48509;52.122;5.250;2023-02-12T02:24:25;31.0;;;21.9;;
62457;SDS011;48509;52.122;5.250;2023-02-12T02:27:09;29.4;;;22.3;;
62457;SDS011;48509;52.122;5.250;2023-02-12T02:28:57;30.7;;;21.6;;
62457;SDS011;48509;52.122;5.250;2023-02-12T02:30:47;31.6;;;23.3;;
62457;SDS011;48509;52.122;5.250;2023-02-12T02:32:32;29.4;;;21.3;;
62457;SDS011;48509;52.122;5.250;2023-02-12T02:36:08;33.8;;;25.0;;
62457;SDS011;48509;52.122;5.250;2023-02-12T02:37:59;30.8;;;23.0;;
62457;SDS011;48509;52.122;5.250;2023-02-12T02:39:48;30.0;;;22.0;;
62457;SDS011;48509;52.122;5.250;2023-02-12T02:41:29;28.6;;;21.5;;
62457;SDS011;48509;52.122;5.250;2023-02-12T02:43:14;30.1;;;23.6;;
62457;SDS011;48509;52.122;5.250;2023-02-12T02:44:56;31.5;;;23.7;;
62457;SDS011;48509;52.122;5.250;2023-02-12T02:48:22;31.5;;;23.7;;
62457;SDS011;48509;52.122;5.250;2023-02-12T02:50:03;31.8;;;22.3;;
62457;SDS011;48509;52.122;5.250;2023-02-12T02:51:47;29.6;;;21.6;;
62457;SDS011;48509;52.122;5.250;2023-02-12T02:53:31;30.6;;;23.0;;
62457;SDS011;48509;52.122;5.250;2023-02-12T02:56:56;31.9;;;21.8;;
62457;SDS011;48509;52.122;5.250;2023-02-12T02:58:41;35.9;;;23.7;;
62457;SDS011;48509;52.122;5.250;2023-02-12T03:00:24;30.7;;;21.3;;
62457;SDS011;48509;52.122;5.250;2023-02-12T03:02:09;29.5;;;21.5;;
62457;SDS011;48509;52.122;5.250;2023-02-12T03:03:52;25.7;;;20.0;;
62457;SDS011;48509;52.122;5.250;2023-02-12T03:07:18;32.1;;;22.1;;
62457;SDS011;48509;52.122;5.250;2023-02-12T03:09:01;31.4;;;22.8;;
62457;SDS011;48509;52.122;5.250;2023-02-12T03:10:45;31.4;;;22.8;;
62457;SDS011;48509;52.122;5.250;2023-02-12T03:12:28;32.0;;;23.0;;
62457;SDS011;48509;52.122;5.250;2023-02-12T03:14:11;39.0;;;25.2;;
62457;SDS011;48509;52.122;5.250;2023-02-12T03:17:38;30.8;;;22.4;;
62457;SDS011;48509;52.122;5.250;2023-02-12T03:19:20;31.8;;;23.9;;
62457;SDS011;48509;52.122;5.250;2023-02-12T03:21:00;29.9;;;22.1;;
62457;SDS011;48509;52.122;5.250;2023-02-12T03:22:42;34.4;;;25.6;;
62457;SDS011;48509;52.122;5.250;2023-02-12T03:26:10;33.5;;;25.5;;
62457;SDS011;48509;52.122;5.250;2023-02-12T03:27:54;28.6;;;21.1;;
62457;SDS011;48509;52.122;5.250;2023-02-12T03:29:39;31.4;;;21.7;;
62457;SDS011;48509;52.122;5.250;2023-02-12T03:31:18;31.1;;;23.6;;
62457;SDS011;48509;52.122;5.250;2023-02-12T03:33:07;34.81;;;27.4;;
62457;SDS011;48509;52.122;5.250;2023-02-12T03:36:47;36.0;;;23.6;;
62457;SDS011;48509;52.122;5.250;2023-02-12T03:38:32;32.6;;;24.9;;
62457;SDS011;48509;52.122;5.250;2023-02-12T03:40:14;28.5;;;20.7;;
62457;SDS011;48509;52.122;5.250;2023-02-12T03:41:56;26.8;;;21.2;;
62457;SDS011;48509;52.122;5.250;2023-02-12T03:43:42;33.21;;;22.7;;
62457;SDS011;48509;52.122;5.250;2023-02-12T03:47:18;28.4;;;21.4;;
62457;SDS011;48509;52.122;5.250;2023-02-12T03:49:01;29.5;;;22.1;;
62457;SDS011;48509;52.122;5.250;2023-02-12T03:50:44;30.9;;;22.6;;
62457;SDS011;48509;52.122;5.250;2023-02-12T03:52:31;31.6;;;22.9;;
62457;SDS011;48509;52.122;5.250;2023-02-12T03:54:09;28.6;;;20.8;;
62457;SDS011;48509;52.122;5.250;2023-02-12T03:57:33;28.8;;;21.3;;
62457;SDS011;48509;52.122;5.250;2023-02-12T03:59:16;27.9;;;20.5;;
62457;SDS011;48509;52.122;5.250;2023-02-12T04:00:53;32.8;;;23.7;;
62457;SDS011;48509;52.122;5.250;2023-02-12T04:02:30;33.5;;;24.6;;
62457;SDS011;48509;52.122;5.250;2023-02-12T04:05:45;35.81;;;25.9;;
62457;SDS011;48509;52.122;5.250;2023-02-12T04:07:22;39.71;;;26.2;;
62457;SDS011;48509;52.122;5.250;2023-02-12T04:09:00;29.9;;;23.0;;
62457;SDS011;48509;52.122;5.250;2023-02-12T04:10:42;33.3;;;24.5;;
62457;SDS011;48509;52.122;5.250;2023-02-12T04:14:28;33.3;;;24.5;;
62457;SDS011;48509;52.122;5.250;2023-02-12T04:16:17;35.81;;;27.4;;
62457;SDS011;48509;52.122;5.250;2023-02-12T04:18:01;33.5;;;24.5;;
62457;SDS011;48509;52.122;5.250;2023-02-12T04:19:47;36.6;;;25.7;;
62457;SDS011;48509;52.122;5.250;2023-02-12T04:21:42;32.6;;;23.3;;
62457;SDS011;48509;52.122;5.250;2023-02-12T04:23:32;34.71;;;25.6;;
62457;SDS011;48509;52.122;5.250;2023-02-12T04:25:26;31.7;;;23.4;;
62457;SDS011;48509;52.122;5.250;2023-02-12T04:29:04;28.5;;;21.9;;
62457;SDS011;48509;52.122;5.250;2023-02-12T04:30:54;30.3;;;22.9;;
62457;SDS011;48509;52.122;5.250;2023-02-12T04:32:36;32.9;;;24.5;;
62457;SDS011;48509;52.122;5.250;2023-02-12T04:34:21;42.0;;;25.7;;
62457;SDS011;48509;52.122;5.250;2023-02-12T04:36:09;32.6;;;23.1;;
62457;SDS011;48509;52.122;5.250;2023-02-12T04:37:52;37.5;;;25.5;;
62457;SDS011;48509;52.122;5.250;2023-02-12T04:41:16;36.21;;;26.6;;
62457;SDS011;48509;52.122;5.250;2023-02-12T04:42:53;39.81;;;28.8;;
62457;SDS011;48509;52.122;5.250;2023-02-12T04:44:30;36.6;;;26.1;;
62457;SDS011;48509;52.122;5.250;2023-02-12T04:47:46;28.1;;;20.7;;
62457;SDS011;48509;52.122;5.250;2023-02-12T04:49:23;35.81;;;26.3;;
62457;SDS011;48509;52.122;5.250;2023-02-12T04:51:00;26.9;;;21.1;;
62457;SDS011;48509;52.122;5.250;2023-02-12T04:52:37;35.31;;;23.9;;
62457;SDS011;48509;52.122;5.250;2023-02-12T04:55:54;33.9;;;25.7;;
62457;SDS011;48509;52.122;5.250;2023-02-12T04:57:30;32.4;;;23.8;;
62457;SDS011;48509;52.122;5.250;2023-02-12T04:59:07;29.7;;;23.5;;
62457;SDS011;48509;52.122;5.250;2023-02-12T05:02:21;36.6;;;27.1;;
62457;SDS011;48509;52.122;5.250;2023-02-12T05:03:58;34.1;;;25.9;;
62457;SDS011;48509;52.122;5.250;2023-02-12T05:05:34;30.4;;;23.2;;
62457;SDS011;48509;52.122;5.250;2023-02-12T05:07:11;33.0;;;25.1;;
62457;SDS011;48509;52.122;5.250;2023-02-12T05:10:23;37.4;;;29.5;;
62457;SDS011;48509;52.122;5.250;2023-02-12T05:12:00;36.6;;;28.0;;
62457;SDS011;48509;52.122;5.250;2023-02-12T05:13:37;35.0;;;26.3;;
62457;SDS011;48509;52.122;5.250;2023-02-12T05:16:51;38.21;;;29.2;;
62457;SDS011;48509;52.122;5.250;2023-02-12T05:18:28;33.3;;;25.4;;
62457;SDS011;48509;52.122;5.250;2023-02-12T05:20:06;38.4;;;28.9;;
62457;SDS011;48509;52.122;5.250;2023-02-12T05:23:19;37.21;;;28.8;;
62457;SDS011;48509;52.122;5.250;2023-02-12T05:24:56;43.4;;;28.7;;
62457;SDS011;48509;52.122;5.250;2023-02-12T05:26:32;39.21;;;30.1;;
62457;SDS011;48509;52.122;5.250;2023-02-12T05:28:09;39.9;;;31.1;;
62457;SDS011;48509;52.122;5.250;2023-02-12T05:31:21;37.1;;;28.9;;
62457;SDS011;48509;52.122;5.250;2023-02-12T05:32:58;40.1;;;31.8;;
62457;SDS011;48509;52.122;5.250;2023-02-12T05:34:35;45.6;;;31.5;;
62457;SDS011;48509;52.122;5.250;2023-02-12T05:37:52;39.31;;;29.3;;
62457;SDS011;48509;52.122;5.250;2023-02-12T05:39:28;36.1;;;27.9;;
62457;SDS011;48509;52.122;5.250;2023-02-12T05:41:05;32.71;;;25.9;;
62457;SDS011;48509;52.122;5.250;2023-02-12T05:42:43;39.4;;;29.5;;
62457;SDS011;48509;52.122;5.250;2023-02-12T05:45:57;37.21;;;28.2;;
62457;SDS011;48509;52.122;5.250;2023-02-12T05:47:34;33.5;;;26.7;;
62457;SDS011;48509;52.122;5.250;2023-02-12T05:49:11;33.5;;;26.7;;
62457;SDS011;48509;52.122;5.250;2023-02-12T05:52:24;32.71;;;26.3;;
62457;SDS011;48509;52.122;5.250;2023-02-12T05:54:03;34.5;;;26.1;;
62457;SDS011;48509;52.122;5.250;2023-02-12T05:55:41;50.9;;;33.8;;
62457;SDS011;48509;52.122;5.250;2023-02-12T05:58:54;40.81;;;30.3;;
62457;SDS011;48509;52.122;5.250;2023-02-12T06:00:32;43.2;;;30.3;;
62457;SDS011;48509;52.122;5.250;2023-02-12T06:02:09;37.5;;;28.4;;
62457;SDS011;48509;52.122;5.250;2023-02-12T06:03:46;46.0;;;32.4;;
62457;SDS011;48509;52.122;5.250;2023-02-12T06:06:59;35.0;;;27.2;;
62457;SDS011;48509;52.122;5.250;2023-02-12T06:08:36;40.5;;;32.1;;
62457;SDS011;48509;52.122;5.250;2023-02-12T06:10:13;36.81;;;28.5;;
62457;SDS011;48509;52.122;5.250;2023-02-12T06:13:26;34.5;;;27.3;;
62457;SDS011;48509;52.122;5.250;2023-02-12T06:15:03;41.9;;;31.4;;
62457;SDS011;48509;52.122;5.250;2023-02-12T06:16:42;42.1;;;31.0;;
62457;SDS011;48509;52.122;5.250;2023-02-12T06:18:20;37.1;;;27.4;;
62457;SDS011;48509;52.122;5.250;2023-02-12T06:21:33;39.21;;;31.3;;
62457;SDS011;48509;52.122;5.250;2023-02-12T06:23:10;40.1;;;29.9;;
62457;SDS011;48509;52.122;5.250;2023-02-12T06:24:46;31.7;;;24.7;;
62457;SDS011;48509;52.122;5.250;2023-02-12T06:28:00;37.4;;;27.0;;
62457;SDS011;48509;52.122;5.250;2023-02-12T06:29:36;34.4;;;26.3;;
62457;SDS011;48509;52.122;5.250;2023-02-12T06:31:17;36.81;;;26.8;;
62457;SDS011;48509;52.122;5.250;2023-02-12T06:32:55;42.1;;;27.3;;
62457;SDS011;48509;52.122;5.250;2023-02-12T06:36:09;34.6;;;27.5;;
62457;SDS011;48509;52.122;5.250;2023-02-12T06:37:45;36.71;;;26.6;;
62457;SDS011;48509;52.122;5.250;2023-02-12T06:39:21;37.71;;;27.1;;
62457;SDS011;48509;52.122;5.250;2023-02-12T06:42:37;38.4;;;29.3;;
62457;SDS011;48509;52.122;5.250;2023-02-12T06:44:13;38.31;;;29.5;;
62457;SDS011;48509;52.122;5.250;2023-02-12T06:45:49;34.81;;;27.8;;
62457;SDS011;48509;52.122;5.250;2023-02-12T06:49:02;37.0;;;26.8;;
62457;SDS011;48509;52.122;5.250;2023-02-12T06:50:39;36.4;;;26.7;;
62457;SDS011;48509;52.122;5.250;2023-02-12T06:52:15;37.1;;;29.3;;
62457;SDS011;48509;52.122;5.250;2023-02-12T06:53:52;37.21;;;26.8;;
62457;SDS011;48509;52.122;5.250;2023-02-12T06:57:06;36.4;;;29.4;;
62457;SDS011;48509;52.122;5.250;2023-02-12T06:58:42;38.0;;;29.7;;
62457;SDS011;48509;52.122;5.250;2023-02-12T07:00:21;39.0;;;29.3;;
62457;SDS011;48509;52.122;5.250;2023-02-12T07:03:35;37.31;;;28.8;;
62457;SDS011;48509;52.122;5.250;2023-02-12T07:05:11;34.9;;;26.9;;
62457;SDS011;48509;52.122;5.250;2023-02-12T07:06:47;37.1;;;29.2;;
62457;SDS011;48509;52.122;5.250;2023-02-12T07:10:00;38.6;;;29.6;;
62457;SDS011;48509;52.122;5.250;2023-02-12T07:11:37;40.21;;;31.5;;
62457;SDS011;48509;52.122;5.250;2023-02-12T07:13:14;39.4;;;31.2;;
62457;SDS011;48509;52.122;5.250;2023-02-12T07:14:50;45.9;;;32.3;;
62457;SDS011;48509;52.122;5.250;2023-02-12T07:18:04;38.0;;;29.7;;
62457;SDS011;48509;52.122;5.250;2023-02-12T07:19:41;41.1;;;28.8;;
62457;SDS011;48509;52.122;5.250;2023-02-12T07:21:17;31.1;;;25.9;;
62457;SDS011;48509;52.122;5.250;2023-02-12T07:24:31;35.71;;;28.3;;
62457;SDS011;48509;52.122;5.250;2023-02-12T07:26:08;41.3;;;32.1;;
62457;SDS011;48509;52.122;5.250;2023-02-12T07:27:47;35.0;;;27.7;;
62457;SDS011;48509;52.122;5.250;2023-02-12T07:29:23;29.5;;;24.2;;
62457;SDS011;48509;52.122;5.250;2023-02-12T07:32:43;35.21;;;27.4;;
62457;SDS011;48509;52.122;5.250;2023-02-12T07:34:19;45.5;;;33.5;;
62457;SDS011;48509;52.122;5.250;2023-02-12T07:35:58;44.1;;;32.71;;
62457;SDS011;48509;52.122;5.250;2023-02-12T07:39:12;36.6;;;25.6;;
62457;SDS011;48509;52.122;5.250;2023-02-12T07:40:48;33.21;;;26.2;;
62457;SDS011;48509;52.122;5.250;2023-02-12T07:42:25;31.2;;;25.6;;
62457;SDS011;48509;52.122;5.250;2023-02-12T07:44:03;36.5;;;28.2;;
62457;SDS011;48509;52.122;5.250;2023-02-12T07:47:18;32.21;;;26.0;;
62457;SDS011;48509;52.122;5.250;2023-02-12T07:48:55;37.0;;;30.8;;
62457;SDS011;48509;52.122;5.250;2023-02-12T07:50:33;38.21;;;28.5;;
62457;SDS011;48509;52.122;5.250;2023-02-12T07:53:47;36.0;;;28.8;;
62457;SDS011;48509;52.122;5.250;2023-02-12T07:55:25;28.5;;;24.3;;
62457;SDS011;48509;52.122;5.250;2023-02-12T07:57:02;35.31;;;26.4;;
62457;SDS011;48509;52.122;5.250;2023-02-12T07:58:39;38.0;;;29.3;;
62457;SDS011;48509;52.122;5.250;2023-02-12T08:01:55;37.6;;;32.9;;
62457;SDS011;48509;52.122;5.250;2023-02-12T08:03:31;46.3;;;35.4;;
62457;SDS011;48509;52.122;5.250;2023-02-12T08:05:08;37.9;;;29.8;;
62457;SDS011;48509;52.122;5.250;2023-02-12T08:08:24;34.21;;;28.2;;
62457;SDS011;48509;52.122;5.250;2023-02-12T08:10:00;34.21;;;28.2;;
62457;SDS011;48509;52.122;5.250;2023-02-12T08:11:37;37.6;;;30.0;;
62457;SDS011;48509;52.122;5.250;2023-02-12T08:14:53;35.6;;;28.2;;
62457;SDS011;48509;52.122;5.250;2023-02-12T08:16:29;34.81;;;29.4;;
62457;SDS011;48509;52.122;5.250;2023-02-12T08:18:11;41.3;;;32.1;;
62457;SDS011;48509;52.122;5.250;2023-02-12T08:19:47;28.8;;;23.7;;
62457;SDS011;48509;52.122;5.250;2023-02-12T08:23:02;31.9;;;26.6;;
62457;SDS011;48509;52.122;5.250;2023-02-12T08:24:38;34.9;;;29.2;;
62457;SDS011;48509;52.122;5.250;2023-02-12T08:26:16;34.5;;;27.5;;
62457;SDS011;48509;52.122;5.250;2023-02-12T08:29:30;33.4;;;28.2;;
62457;SDS011;48509;52.122;5.250;2023-02-12T08:31:07;30.6;;;23.4;;
62457;SDS011;48509;52.122;5.250;2023-02-12T08:32:50;34.71;;;28.2;;
62457;SDS011;48509;52.122;5.250;2023-02-12T08:34:27;34.0;;;28.9;;
62457;SDS011;48509;52.122;5.250;2023-02-12T08:37:45;36.4;;;30.8;;
62457;SDS011;48509;52.122;5.250;2023-02-12T08:39:21;36.0;;;28.7;;
62457;SDS011;48509;52.122;5.250;2023-02-12T08:41:00;42.3;;;29.8;;
62457;SDS011;48509;52.122;5.250;2023-02-12T08:42:37;33.21;;;27.2;;
62457;SDS011;48509;52.122;5.250;2023-02-12T08:45:50;35.1;;;30.0;;
62457;SDS011;48509;52.122;5.250;2023-02-12T08:47:27;34.5;;;28.4;;
62457;SDS011;48509;52.122;5.250;2023-02-12T08:49:05;35.4;;;29.3;;
62457;SDS011;48509;52.122;5.250;2023-02-12T08:52:21;29.5;;;25.9;;
62457;SDS011;48509;52.122;5.250;2023-02-12T08:53:58;29.5;;;24.5;;
62457;SDS011;48509;52.122;5.250;2023-02-12T08:55:36;31.9;;;27.8;;
62457;SDS011;48509;52.122;5.250;2023-02-12T08:58:49;35.4;;;28.5;;
62457;SDS011;48509;52.122;5.250;2023-02-12T09:00:26;32.21;;;24.7;;
62457;SDS011;48509;52.122;5.250;2023-02-12T09:02:03;33.6;;;27.7;;
62457;SDS011;48509;52.122;5.250;2023-02-12T09:03:40;33.0;;;28.1;;
62457;SDS011;48509;52.122;5.250;2023-02-12T09:06:53;30.2;;;26.4;;
62457;SDS011;48509;52.122;5.250;2023-02-12T09:08:31;33.6;;;27.7;;
62457;SDS011;48509;52.122;5.250;2023-02-12T09:10:09;32.1;;;27.8;;
62457;SDS011;48509;52.122;5.250;2023-02-12T09:13:23;26.7;;;23.9;;
62457;SDS011;48509;52.122;5.250;2023-02-12T09:15:00;32.6;;;27.0;;
62457;SDS011;48509;52.122;5.250;2023-02-12T09:16:38;33.21;;;27.9;;
62457;SDS011;48509;52.122;5.250;2023-02-12T09:18:15;33.6;;;26.6;;
62457;SDS011;48509;52.122;5.250;2023-02-12T09:21:30;32.9;;;28.2;;
62457;SDS011;48509;52.122;5.250;2023-02-12T09:23:07;32.71;;;26.9;;
62457;SDS011;48509;52.122;5.250;2023-02-12T09:24:46;35.0;;;28.1;;
62457;SDS011;48509;52.122;5.250;2023-02-12T09:28:01;31.3;;;28.0;;
62457;SDS011;48509;52.122;5.250;2023-02-12T09:29:38;28.8;;;25.3;;
62457;SDS011;48509;52.122;5.250;2023-02-12T09:31:15;28.1;;;25.1;;
62457;SDS011;48509;52.122;5.250;2023-02-12T09:32:55;31.8;;;26.0;;
62457;SDS011;48509;52.122;5.250;2023-02-12T09:36:11;29.6;;;25.6;;
62457;SDS011;48509;52.122;5.250;2023-02-12T09:37:51;32.1;;;27.0;;
62457;SDS011;48509;52.122;5.250;2023-02-12T09:39:29;30.7;;;26.3;;
62457;SDS011;48509;52.122;5.250;2023-02-12T09:43:06;28.8;;;25.7;;
62457;SDS011;48509;52.122;5.250;2023-02-12T09:44:52;26.1;;;23.3;;
62457;SDS011;48509;52.122;5.250;2023-02-12T09:46:39;31.5;;;25.2;;
62457;SDS011;48509;52.122;5.250;2023-02-12T09:48:34;29.4;;;24.9;;
62457;SDS011;48509;52.122;5.250;2023-02-12T09:50:36;31.6;;;26.0;;
62457;SDS011;48509;52.122;5.250;2023-02-12T09:52:23;28.3;;;24.4;;
62457;SDS011;48509;52.122;5.250;2023-02-12T09:54:03;40.5;;;28.0;;
62457;SDS011;48509;52.122;5.250;2023-02-12T09:57:24;29.1;;;25.7;;
62457;SDS011;48509;52.122;5.250;2023-02-12T09:59:05;29.2;;;25.1;;
62457;SDS011;48509;52.122;5.250;2023-02-12T10:00:43;28.3;;;23.8;;
62457;SDS011;48509;52.122;5.250;2023-02-12T10:02:21;27.2;;;22.2;;
62457;SDS011;48509;52.122;5.250;2023-02-12T10:05:37;27.1;;;23.0;;
62457;SDS011;48509;52.122;5.250;2023-02-12T10:07:19;28.8;;;23.5;;
62457;SDS011;48509;52.122;5.250;2023-02-12T10:09:19;29.0;;;24.2;;
62457;SDS011;48509;52.122;5.250;2023-02-12T10:11:14;30.3;;;23.4;;
62457;SDS011;48509;52.122;5.250;2023-02-12T10:13:17;28.8;;;24.3;;
62457;SDS011;48509;52.122;5.250;2023-02-12T10:15:14;27.4;;;22.9;;
62457;SDS011;48509;52.122;5.250;2023-02-12T10:17:04;28.9;;;22.3;;
62457;SDS011;48509;52.122;5.250;2023-02-12T10:20:47;29.7;;;25.2;;
62457;SDS011;48509;52.122;5.250;2023-02-12T10:22:49;32.3;;;27.2;;
62457;SDS011;48509;52.122;5.250;2023-02-12T10:24:45;29.4;;;24.6;;
62457;SDS011;48509;52.122;5.250;2023-02-12T10:26:33;31.0;;;25.2;;
62457;SDS011;48509;52.122;5.250;2023-02-12T10:28:14;32.6;;;26.5;;
62457;SDS011;48509;52.122;5.250;2023-02-12T10:29:54;31.4;;;25.8;;
62457;SDS011;48509;52.122;5.250;2023-02-12T10:31:33;33.0;;;26.8;;
62457;SDS011;48509;52.122;5.250;2023-02-12T10:34:56;32.5;;;26.6;;
62457;SDS011;48509;52.122;5.250;2023-02-12T10:36:36;32.5;;;26.6;;
62457;SDS011;48509;52.122;5.250;2023-02-12T10:38:18;33.21;;;26.1;;
62457;SDS011;48509;52.122;5.250;2023-02-12T10:39:58;32.71;;;25.8;;
62457;SDS011;48509;52.122;5.250;2023-02-12T10:43:21;31.8;;;25.4;;
62457;SDS011;48509;52.122;5.250;2023-02-12T10:44:58;27.6;;;24.5;;
62457;SDS011;48509;52.122;5.250;2023-02-12T10:46:36;34.81;;;29.5;;
62457;SDS011;48509;52.122;5.250;2023-02-12T10:48:14;32.5;;;26.7;;
62457;SDS011;48509;52.122;5.250;2023-02-12T10:51:37;31.6;;;28.2;;
62457;SDS011;48509;52.122;5.250;2023-02-12T10:53:25;32.3;;;27.0;;
62457;SDS011;48509;52.122;5.250;2023-02-12T10:55:21;32.0;;;28.6;;
62457;SDS011;48509;52.122;5.250;2023-02-12T10:57:05;33.21;;;29.6;;
62457;SDS011;48509;52.122;5.250;2023-02-12T10:58:51;32.9;;;28.6;;
62457;SDS011;48509;52.122;5.250;2023-02-12T11:02:29;31.6;;;27.5;;
62457;SDS011;48509;52.122;5.250;2023-02-12T11:04:18;33.71;;;28.0;;
62457;SDS011;48509;52.122;5.250;2023-02-12T11:06:11;36.31;;;28.9;;
62457;SDS011;48509;52.122;5.250;2023-02-12T11:07:50;34.4;;;28.8;;
62457;SDS011;48509;52.122;5.250;2023-02-12T11:09:28;31.4;;;26.3;;
62457;SDS011;48509;52.122;5.250;2023-02-12T11:11:08;32.5;;;27.1;;
62457;SDS011;48509;52.122;5.250;2023-02-12T11:14:24;31.6;;;25.9;;
62457;SDS011;48509;52.122;5.250;2023-02-12T11:16:02;35.21;;;27.4;;
62457;SDS011;48509;52.122;5.250;2023-02-12T11:17:40;31.4;;;25.4;;
62457;SDS011;48509;52.122;5.250;2023-02-12T11:21:00;31.4;;;25.3;;
62457;SDS011;48509;52.122;5.250;2023-02-12T11:22:47;34.21;;;27.6;;
62457;SDS011;48509;52.122;5.250;2023-02-12T11:24:27;31.4;;;26.1;;
62457;SDS011;48509;52.122;5.250;2023-02-12T11:26:21;33.4;;;27.0;;
62457;SDS011;48509;52.122;5.250;2023-02-12T11:28:04;33.3;;;27.0;;
62457;SDS011;48509;52.122;5.250;2023-02-12T11:32:06;33.21;;;28.4;;
62457;SDS011;48509;52.122;5.250;2023-02-12T11:33:45;35.9;;;27.2;;
62457;SDS011;48509;52.122;5.250;2023-02-12T11:35:24;32.6;;;26.5;;
62457;SDS011;48509;52.122;5.250;2023-02-12T11:37:01;34.31;;;27.9;;
62457;SDS011;48509;52.122;5.250;2023-02-12T11:38:39;31.3;;;25.7;;
62457;SDS011;48509;52.122;5.250;2023-02-12T11:40:28;31.3;;;26.8;;
62457;SDS011;48509;52.122;5.250;2023-02-12T11:43:53;31.8;;;26.0;;
62457;SDS011;48509;52.122;5.250;2023-02-12T11:45:32;32.5;;;26.9;;
62457;SDS011;48509;52.122;5.250;2023-02-12T11:47:17;32.1;;;26.7;;
62457;SDS011;48509;52.122;5.250;2023-02-12T11:48:56;34.6;;;26.5;;
62457;SDS011;48509;52.122;5.250;2023-02-12T11:52:16;30.4;;;26.3;;
62457;SDS011;48509;52.122;5.250;2023-02-12T11:53:57;35.5;;;27.0;;
62457;SDS011;48509;52.122;5.250;2023-02-12T11:55:38;28.6;;;25.5;;
62457;SDS011;48509;52.122;5.250;2023-02-12T11:57:48;31.1;;;26.6;;
62457;SDS011;48509;52.122;5.250;2023-02-12T11:59:30;31.1;;;25.7;;
62457;SDS011;48509;52.122;5.250;2023-02-12T12:02:56;36.4;;;26.3;;
62457;SDS011;48509;52.122;5.250;2023-02-12T12:04:36;30.3;;;25.4;;
62457;SDS011;48509;52.122;5.250;2023-02-12T12:06:20;33.0;;;26.2;;
62457;SDS011;48509;52.122;5.250;2023-02-12T12:08:11;28.4;;;23.8;;
62457;SDS011;48509;52.122;5.250;2023-02-12T12:09:56;29.4;;;24.1;;
62457;SDS011;48509;52.122;5.250;2023-02-12T12:13:34;27.7;;;23.4;;
62457;SDS011;48509;52.122;5.250;2023-02-12T12:20:13;30.4;;;24.7;;
62457;SDS011;48509;52.122;5.250;2023-02-12T12:21:56;28.3;;;23.4;;
62457;SDS011;48509;52.122;5.250;2023-02-12T12:23:39;25.4;;;22.1;;
62457;SDS011;48509;52.122;5.250;2023-02-12T12:25:20;25.1;;;21.4;;
62457;SDS011;48509;52.122;5.250;2023-02-12T12:27:03;29.7;;;24.9;;
62457;SDS011;48509;52.122;5.250;2023-02-12T12:28:50;28.2;;;24.4;;
62457;SDS011;48509;52.122;5.250;2023-02-12T12:32:36;28.4;;;22.8;;
62457;SDS011;48509;52.122;5.250;2023-02-12T12:34:17;32.8;;;24.1;;
62457;SDS011;48509;52.122;5.250;2023-02-12T12:36:00;25.7;;;22.2;;
62457;SDS011;48509;52.122;5.250;2023-02-12T12:38:00;26.8;;;21.3;;
62457;SDS011;48509;52.122;5.250;2023-02-12T12:39:46;27.6;;;22.1;;
62457;SDS011;48509;52.122;5.250;2023-02-12T12:41:40;32.6;;;21.7;;
62457;SDS011;48509;52.122;5.250;2023-02-12T12:43:35;27.1;;;21.9;;